createdAt,value
2019-02-17T00:00:41.447Z,99.70
2019-02-17T00:03:10.384Z,99.40
2019-02-17T00:05:39.245Z,99.60
2019-02-17T00:08:08.099Z,99.60
2019-02-17T00:10:37.034Z,99.60
2019-02-17T00:13:05.971Z,99.70
2019-02-17T00:15:34.966Z,99.70
2019-02-17T00:18:03.839Z,99.80
2019-02-17T00:20:32.683Z,99.80
2019-02-17T00:23:01.541Z,99.70
2019-02-17T00:25:30.480Z,99.80
2019-02-17T00:27:59.326Z,99.80
2019-02-17T00:30:28.158Z,99.50
2019-02-17T00:32:56.989Z,99.70
2019-02-17T00:35:25.817Z,99.80
2019-02-17T00:37:54.658Z,99.70
2019-02-17T00:40:23.473Z,99.90
2019-02-17T00:42:52.301Z,99.70
2019-02-17T00:45:21.528Z,99.80
2019-02-17T00:47:50.634Z,99.90
2019-02-17T00:50:19.577Z,99.90
2019-02-17T00:52:48.408Z,99.90
2019-02-17T00:55:17.234Z,99.90
2019-02-17T00:57:46.065Z,99.90
2019-02-17T01:00:15.109Z,99.90
2019-02-17T01:02:43.956Z,99.90
2019-02-17T01:05:12.926Z,99.90
2019-02-17T01:07:41.829Z,99.90
2019-02-17T01:10:10.737Z,99.90
2019-02-17T01:12:39.633Z,99.90
2019-02-17T01:15:09.097Z,99.90
2019-02-17T01:17:37.962Z,99.90
2019-02-17T01:20:07.269Z,99.90
2019-02-17T01:22:36.165Z,99.90
2019-02-17T01:25:05.817Z,99.90
2019-02-17T01:27:34.655Z,99.90
2019-02-17T01:30:03.842Z,99.90
2019-02-17T01:32:32.825Z,99.90
2019-02-17T01:35:01.650Z,99.90
2019-02-17T01:37:30.773Z,99.90
2019-02-17T01:40:00.378Z,99.90
2019-02-17T01:42:29.561Z,99.90
2019-02-17T01:44:58.683Z,99.90
2019-02-17T01:47:27.501Z,99.90
2019-02-17T01:49:56.361Z,99.90
2019-02-17T01:52:25.493Z,99.90
2019-02-17T01:54:54.320Z,99.80
2019-02-17T01:57:23.219Z,99.60
2019-02-17T01:59:52.621Z,99.60
2019-02-17T02:02:21.446Z,99.90
2019-02-17T02:04:50.282Z,99.70
2019-02-17T02:07:19.177Z,99.90
2019-02-17T02:09:48.598Z,99.90
2019-02-17T02:12:17.673Z,99.90
2019-02-17T02:14:46.505Z,99.90
2019-02-17T02:17:15.662Z,99.90
2019-02-17T02:19:44.916Z,99.90
2019-02-17T02:22:13.807Z,99.80
2019-02-17T02:24:42.731Z,99.70
2019-02-17T02:27:12.030Z,99.80
2019-02-17T02:29:41.497Z,99.90
2019-02-17T02:32:10.531Z,99.20
2019-02-17T02:34:40.034Z,99.20
2019-02-17T02:37:09.646Z,98.80
2019-02-17T02:39:38.542Z,97.90
2019-02-17T02:42:07.386Z,97.70
2019-02-17T02:44:36.358Z,97.40
2019-02-17T02:47:05.358Z,97.60
2019-02-17T02:49:35.186Z,97.70
2019-02-17T02:52:04.643Z,97.60
2019-02-17T02:54:35.607Z,97.60
2019-02-17T02:57:04.677Z,97.80
2019-02-17T02:59:33.757Z,98.30
2019-02-17T03:02:02.851Z,97.60
2019-02-17T03:04:31.846Z,98.00
2019-02-17T03:07:06.624Z,98.70
2019-02-17T03:09:35.572Z,98.40
2019-02-17T03:12:23.662Z,98.40
2019-02-17T03:14:52.550Z,99.40
2019-02-17T03:17:21.390Z,99.20
2019-02-17T03:19:52.262Z,99.10
2019-02-17T03:22:21.262Z,98.70
2019-02-17T03:24:50.326Z,99.10
2019-02-17T03:27:19.235Z,99.50
2019-02-17T03:29:48.175Z,99.30
2019-02-17T03:32:17.098Z,99.90
2019-02-17T03:34:46.204Z,99.50
2019-02-17T03:37:34.218Z,99.50
2019-02-17T03:40:03.685Z,99.70
2019-02-17T03:42:32.803Z,99.40
2019-02-17T03:45:02.174Z,99.50
2019-02-17T03:47:31.191Z,99.40
2019-02-17T03:50:00.323Z,99.60
2019-02-17T03:52:29.382Z,99.40
2019-02-17T03:54:58.262Z,99.30
2019-02-17T03:57:27.091Z,99.90
2019-02-17T03:59:55.937Z,99.90
2019-02-17T04:02:24.834Z,99.90
2019-02-17T04:04:53.665Z,99.90
2019-02-17T04:07:23.292Z,99.90
2019-02-17T04:09:52.269Z,99.90
2019-02-17T04:12:21.373Z,99.90
2019-02-17T04:14:50.201Z,99.90
2019-02-17T04:17:19.105Z,99.90
2019-02-17T04:19:48.015Z,99.90
2019-02-17T04:22:17.173Z,99.90
2019-02-17T04:24:46.081Z,99.90
2019-02-17T04:27:14.908Z,99.90
2019-02-17T04:29:43.799Z,99.90
2019-02-17T04:32:12.930Z,99.90
2019-02-17T04:34:41.763Z,99.90
2019-02-17T04:37:10.912Z,99.90
2019-02-17T04:39:39.799Z,99.90
2019-02-17T04:42:08.778Z,99.90
2019-02-17T04:44:37.842Z,99.90
2019-02-17T04:47:06.673Z,99.90
2019-02-17T04:49:35.573Z,99.90
2019-02-17T04:52:04.408Z,99.90
2019-02-17T04:54:33.853Z,99.90
2019-02-17T04:57:02.758Z,99.90
2019-02-17T04:59:32.713Z,99.90
2019-02-17T05:02:01.638Z,99.90
2019-02-17T05:04:30.526Z,99.90
2019-02-17T05:06:59.753Z,99.90
2019-02-17T05:09:29.067Z,99.90
2019-02-17T05:11:57.941Z,99.90
2019-02-17T05:14:26.753Z,99.90
2019-02-17T05:16:55.726Z,99.90
2019-02-17T05:19:24.893Z,99.90
2019-02-17T05:21:53.721Z,99.90
2019-02-17T05:24:22.544Z,99.90
2019-02-17T05:26:51.379Z,99.90
2019-02-17T05:29:20.201Z,99.90
2019-02-17T05:31:49.030Z,99.90
2019-02-17T05:34:17.850Z,99.90
2019-02-17T05:36:46.762Z,99.90
2019-02-17T05:39:15.574Z,99.90
2019-02-17T05:41:44.718Z,99.90
2019-02-17T05:44:14.010Z,99.90
2019-02-17T05:46:42.934Z,99.90
2019-02-17T05:49:11.817Z,99.90
2019-02-17T05:51:40.649Z,99.90
2019-02-17T05:54:09.490Z,99.90
2019-02-17T05:56:38.359Z,99.90
2019-02-17T05:59:07.173Z,99.90
2019-02-17T06:01:36.252Z,99.90
2019-02-17T06:04:05.706Z,99.90
2019-02-17T06:06:34.545Z,99.90
2019-02-17T06:09:04.925Z,99.90
2019-02-17T06:11:33.757Z,99.90
2019-02-17T06:14:02.605Z,99.90
2019-02-17T06:16:31.463Z,99.90
2019-02-17T06:19:00.315Z,99.90
2019-02-17T06:21:29.171Z,99.90
2019-02-17T06:23:58.031Z,99.90
2019-02-17T06:26:27.047Z,99.90
2019-02-17T06:28:55.901Z,99.90
2019-02-17T06:31:24.842Z,99.90
2019-02-17T06:33:53.763Z,99.90
2019-02-17T06:36:22.618Z,99.90
2019-02-17T06:38:51.610Z,99.90
2019-02-17T06:41:20.463Z,99.90
2019-02-17T06:43:49.291Z,99.90
2019-02-17T06:46:21.930Z,99.90
2019-02-17T06:48:50.761Z,99.90
2019-02-17T06:51:19.587Z,99.90
2019-02-17T06:53:48.419Z,99.90
2019-02-17T06:56:31.113Z,99.90
2019-02-17T06:59:00.557Z,99.90
2019-02-17T07:01:29.370Z,99.90
2019-02-17T07:03:58.449Z,99.90
2019-02-17T07:06:39.744Z,99.90
2019-02-17T07:09:08.562Z,99.90
2019-02-17T07:11:37.397Z,99.90
2019-02-17T07:14:06.293Z,99.90
2019-02-17T07:16:35.105Z,99.90
2019-02-17T07:19:03.950Z,99.90
2019-02-17T07:21:32.769Z,99.90
2019-02-17T07:24:01.593Z,99.90
2019-02-17T07:26:30.404Z,99.90
2019-02-17T07:29:00.229Z,99.90
2019-02-17T07:31:34.842Z,99.90
2019-02-17T07:33:59.618Z,99.90
2019-02-17T07:36:28.443Z,99.70
2019-02-17T07:38:57.657Z,99.50
2019-02-17T07:41:26.478Z,99.30
2019-02-17T07:43:55.302Z,98.50
2019-02-17T07:46:24.212Z,98.30
2019-02-17T07:48:53.051Z,98.00
2019-02-17T07:51:21.877Z,98.10
2019-02-17T07:53:50.712Z,97.00
2019-02-17T07:56:19.534Z,96.90
2019-02-17T07:58:48.390Z,96.50
2019-02-17T08:01:17.534Z,96.40
2019-02-17T08:03:46.436Z,95.80
2019-02-17T08:06:15.494Z,94.40
2019-02-17T08:08:44.353Z,93.70
2019-02-17T08:11:13.178Z,90.50
2019-02-17T08:13:42.073Z,91.10
2019-02-17T08:16:10.901Z,92.70
2019-02-17T08:18:39.798Z,92.10
2019-02-17T08:21:08.669Z,90.60
2019-02-17T08:23:37.749Z,87.70
2019-02-17T08:26:06.850Z,87.30
2019-02-17T08:28:35.949Z,84.70
2019-02-17T08:31:04.853Z,81.70
2019-02-17T08:33:33.936Z,81.80
2019-02-17T08:36:02.769Z,82.20
2019-02-17T08:38:31.593Z,83.00
2019-02-17T08:41:00.914Z,79.70
2019-02-17T08:43:30.143Z,77.90
2019-02-17T08:45:59.273Z,74.70
2019-02-17T08:48:28.100Z,77.00
2019-02-17T08:50:56.957Z,72.40
2019-02-17T08:53:25.798Z,72.40
2019-02-17T08:55:54.653Z,72.10
2019-02-17T08:58:23.568Z,70.00
2019-02-17T09:00:52.501Z,69.00
2019-02-17T09:03:21.411Z,64.60
2019-02-17T09:05:50.344Z,64.50
2019-02-17T09:08:19.182Z,66.20
2019-02-17T09:10:48.190Z,62.30
2019-02-17T09:13:18.577Z,61.10
2019-02-17T09:15:47.586Z,62.20
2019-02-17T09:18:16.516Z,63.70
2019-02-17T09:20:45.476Z,60.80
2019-02-17T09:23:14.330Z,58.30
2019-02-17T09:25:43.350Z,62.30
2019-02-17T09:28:12.284Z,57.60
2019-02-17T09:30:41.335Z,54.60
2019-02-17T09:33:10.193Z,53.30
2019-02-17T09:35:39.194Z,50.50
2019-02-17T09:38:12.139Z,52.90
2019-02-17T09:40:41.351Z,51.00
2019-02-17T09:43:10.288Z,50.90
2019-02-17T09:45:39.197Z,52.20
2019-02-17T09:48:08.026Z,50.70
2019-02-17T09:50:37.100Z,47.20
2019-02-17T09:53:05.990Z,48.30
2019-02-17T09:55:34.885Z,48.20
2019-02-17T09:58:03.698Z,44.60
2019-02-17T10:00:32.573Z,43.20
2019-02-17T10:03:01.409Z,45.20
2019-02-17T10:05:30.253Z,45.10
2019-02-17T10:07:59.119Z,44.90
2019-02-17T10:10:28.286Z,45.10
2019-02-17T10:12:57.138Z,44.90
2019-02-17T10:15:26.057Z,42.90
2019-02-17T10:18:23.475Z,43.80
2019-02-17T10:20:52.374Z,44.50
2019-02-17T10:23:21.321Z,40.60
2019-02-17T10:25:50.186Z,39.80
2019-02-17T10:28:20.365Z,40.80
2019-02-17T10:30:49.213Z,41.20
2019-02-17T10:33:18.334Z,41.00
2019-02-17T10:35:47.596Z,36.70
2019-02-17T10:38:16.504Z,35.70
2019-02-17T10:40:45.337Z,39.00
2019-02-17T10:43:14.458Z,37.50
2019-02-17T10:45:44.345Z,38.20
2019-02-17T10:48:13.257Z,38.10
2019-02-17T10:50:42.102Z,37.00
2019-02-17T10:53:11.345Z,37.80
2019-02-17T10:55:40.165Z,37.00
2019-02-17T10:58:09.093Z,35.90
2019-02-17T11:00:38.209Z,34.30
2019-02-17T11:03:08.945Z,35.50
2019-02-17T11:05:37.841Z,33.60
2019-02-17T11:08:06.673Z,32.20
2019-02-17T11:10:35.564Z,31.30
2019-02-17T11:13:05.055Z,31.90
2019-02-17T11:15:34.337Z,30.70
2019-02-17T11:18:03.249Z,30.70
2019-02-17T11:20:32.142Z,28.50
2019-02-17T11:23:01.289Z,26.60
2019-02-17T11:25:30.117Z,24.80
2019-02-17T11:27:58.954Z,26.60
2019-02-17T11:30:27.790Z,28.90
2019-02-17T11:32:58.315Z,28.00
2019-02-17T11:35:29.675Z,27.90
2019-02-17T11:37:58.183Z,25.80
2019-02-17T11:40:27.010Z,28.70
2019-02-17T11:42:55.917Z,26.20
2019-02-17T11:45:24.889Z,26.50
2019-02-17T11:47:53.722Z,24.60
2019-02-17T11:50:22.552Z,25.00
2019-02-17T11:52:52.117Z,25.00
2019-02-17T11:55:22.761Z,25.00
2019-02-17T11:57:51.559Z,24.10
2019-02-17T12:00:21.889Z,23.80
2019-02-17T12:02:51.423Z,24.30
2019-02-17T12:05:21.157Z,24.30
2019-02-17T12:07:50.654Z,23.60
2019-02-17T12:10:19.509Z,23.30
2019-02-17T12:12:48.485Z,23.90
2019-02-17T12:15:37.955Z,23.10
2019-02-17T12:18:07.389Z,20.20
2019-02-17T12:20:50.515Z,21.30
2019-02-17T12:23:23.282Z,19.70
2019-02-17T12:26:14.838Z,20.60
2019-02-17T12:28:57.675Z,20.00
2019-02-17T12:31:30.509Z,20.70
2019-02-17T12:34:01.256Z,19.50
2019-02-17T12:36:30.724Z,20.30
2019-02-17T12:39:00.277Z,20.20
2019-02-17T12:41:29.847Z,19.60
2019-02-17T12:44:00.447Z,18.80
2019-02-17T12:46:31.052Z,17.40
2019-02-17T12:49:00.643Z,18.10
2019-02-17T12:51:50.886Z,17.80
2019-02-17T12:54:29.384Z,17.60
2019-02-17T12:56:59.197Z,18.50
2019-02-17T12:59:28.785Z,18.00
2019-02-17T13:01:58.255Z,18.90
2019-02-17T13:04:31.538Z,18.10
2019-02-17T13:07:03.952Z,17.60
2019-02-17T13:09:35.203Z,18.80
2019-02-17T13:12:04.700Z,18.50
2019-02-17T13:14:35.730Z,19.10
2019-02-17T13:17:05.267Z,19.00
2019-02-17T13:19:34.827Z,19.70
2019-02-17T13:22:06.125Z,19.50
2019-02-17T13:24:54.781Z,19.10
2019-02-17T13:27:24.638Z,18.70
2019-02-17T13:29:54.303Z,17.20
2019-02-17T13:32:26.307Z,19.10
2019-02-17T13:34:55.737Z,20.00
2019-02-17T13:37:25.170Z,19.20
2019-02-17T13:39:54.718Z,20.80
2019-02-17T13:42:24.171Z,20.60
2019-02-17T13:44:53.735Z,19.80
2019-02-17T13:47:25.074Z,20.30
2019-02-17T13:49:58.139Z,23.40
2019-02-17T13:52:27.754Z,21.60
2019-02-17T13:55:01.962Z,21.50
2019-02-17T13:57:33.902Z,20.40
2019-02-17T14:00:04.288Z,23.40
2019-02-17T14:02:34.855Z,25.20
2019-02-17T14:05:07.132Z,23.40
2019-02-17T14:07:37.937Z,24.30
2019-02-17T14:10:09.041Z,23.90
2019-02-17T14:12:59.296Z,21.00
2019-02-17T14:15:28.643Z,23.60
2019-02-17T14:18:00.902Z,19.70
2019-02-17T14:20:36.298Z,21.70
2019-02-17T14:23:05.780Z,22.50
2019-02-17T14:25:35.345Z,22.30
2019-02-17T14:28:07.926Z,23.00
2019-02-17T14:30:37.447Z,23.70
2019-02-17T14:33:07.511Z,24.10
2019-02-17T14:35:38.736Z,25.90
2019-02-17T14:38:09.334Z,25.10
2019-02-17T14:40:40.983Z,25.10
2019-02-17T14:43:31.837Z,24.60
2019-02-17T14:46:01.462Z,26.20
2019-02-17T14:48:31.079Z,26.70
2019-02-17T14:51:00.985Z,25.10
2019-02-17T14:53:30.653Z,25.20
2019-02-17T14:56:23.445Z,28.80
2019-02-17T14:58:52.919Z,28.00
2019-02-17T15:01:23.012Z,28.90
2019-02-17T15:03:54.130Z,28.70
2019-02-17T15:06:43.501Z,27.80
2019-02-17T15:09:13.149Z,27.20
2019-02-17T15:11:42.737Z,27.10
2019-02-17T15:14:14.751Z,26.10
2019-02-17T15:16:44.454Z,26.00
2019-02-17T15:19:35.202Z,25.90
2019-02-17T15:22:04.755Z,24.70
2019-02-17T15:24:38.824Z,26.40
2019-02-17T15:27:08.367Z,26.30
2019-02-17T15:29:37.924Z,24.60
2019-02-17T15:32:07.455Z,26.80
2019-02-17T15:34:37.079Z,26.20
2019-02-17T15:39:58.423Z,26.40
2019-02-17T15:42:28.070Z,26.80
2019-02-17T15:45:00.135Z,26.80
2019-02-17T15:47:30.858Z,26.60
2019-02-17T15:50:01.914Z,27.10
2019-02-17T15:52:31.705Z,26.70
2019-02-17T15:55:01.172Z,25.70
2019-02-17T15:57:30.770Z,25.20
2019-02-17T16:00:01.845Z,25.80
2019-02-17T16:02:31.351Z,26.80
2019-02-17T16:05:01.476Z,27.80
2019-02-17T16:07:31.111Z,27.70
2019-02-17T16:10:00.541Z,28.50
2019-02-17T16:12:30.021Z,29.20
2019-02-17T16:14:59.592Z,29.90
2019-02-17T16:17:29.098Z,32.40
2019-02-17T16:19:58.634Z,31.10
2019-02-17T16:22:28.144Z,33.40
2019-02-17T16:24:57.733Z,33.60
2019-02-17T16:27:27.225Z,35.00
2019-02-17T16:29:56.754Z,36.10
2019-02-17T16:32:26.311Z,33.40
2019-02-17T16:34:55.826Z,35.30
2019-02-17T16:37:24.785Z,35.20
2019-02-17T16:39:53.702Z,36.50
2019-02-17T16:42:22.542Z,37.60
2019-02-17T16:44:51.431Z,38.70
2019-02-17T16:47:20.465Z,38.50
2019-02-17T16:49:49.341Z,38.90
2019-02-17T16:52:18.243Z,40.80
2019-02-17T16:54:47.211Z,41.20
2019-02-17T16:57:16.121Z,41.50
2019-02-17T16:59:44.953Z,41.60
2019-02-17T17:02:13.775Z,42.40
2019-02-17T17:04:48.511Z,42.40
2019-02-17T17:07:15.231Z,43.30
2019-02-17T17:09:44.141Z,45.00
2019-02-17T17:12:13.032Z,45.20
2019-02-17T17:14:41.881Z,45.30
2019-02-17T17:17:10.721Z,46.30
2019-02-17T17:19:39.680Z,46.60
2019-02-17T17:22:08.569Z,45.50
2019-02-17T17:24:37.449Z,46.40
2019-02-17T17:27:06.746Z,46.80
2019-02-17T17:29:35.677Z,46.60
2019-02-17T17:32:04.932Z,47.30
2019-02-17T17:34:34.315Z,49.40
2019-02-17T17:37:03.229Z,49.70
2019-02-17T17:39:32.086Z,49.30
2019-02-17T17:42:00.893Z,49.40
2019-02-17T17:44:29.722Z,50.10
2019-02-17T17:46:58.621Z,50.90
2019-02-17T17:49:27.489Z,50.80
2019-02-17T17:51:56.336Z,51.60
2019-02-17T17:54:25.245Z,52.90
2019-02-17T17:56:54.138Z,53.80
2019-02-17T17:59:23.034Z,55.20
2019-02-17T18:01:51.863Z,54.90
2019-02-17T18:04:20.698Z,55.50
2019-02-17T18:06:49.562Z,55.60
2019-02-17T18:09:18.486Z,56.40
2019-02-17T18:11:47.490Z,56.40
2019-02-17T18:14:16.422Z,56.90
2019-02-17T18:16:45.420Z,57.50
2019-02-17T18:19:14.266Z,59.50
2019-02-17T18:21:43.350Z,60.70
2019-02-17T18:24:12.307Z,59.70
2019-02-17T18:26:41.252Z,60.50
2019-02-17T18:29:10.268Z,60.50
2019-02-17T18:31:39.147Z,61.80
2019-02-17T18:34:08.017Z,61.90
2019-02-17T18:36:36.875Z,62.70
2019-02-17T18:39:06.485Z,64.60
2019-02-17T18:41:35.364Z,65.90
2019-02-17T18:44:05.185Z,66.40
2019-02-17T18:46:34.128Z,68.90
2019-02-17T18:49:02.967Z,69.40
2019-02-17T18:51:31.849Z,68.00
2019-02-17T18:54:00.692Z,68.50
2019-02-17T18:56:29.547Z,70.40
2019-02-17T18:58:58.391Z,69.80
2019-02-17T19:01:27.256Z,69.80
2019-02-17T19:03:56.296Z,70.00
2019-02-17T19:06:25.244Z,71.80
2019-02-17T19:08:54.258Z,72.90
2019-02-17T19:11:23.259Z,73.40
2019-02-17T19:13:52.186Z,73.50
2019-02-17T19:16:22.394Z,74.90
2019-02-17T19:18:51.259Z,75.30
2019-02-17T19:21:20.213Z,76.00
2019-02-17T19:23:49.223Z,77.30
2019-02-17T19:26:18.163Z,77.10
2019-02-17T19:28:47.112Z,77.60
2019-02-17T19:31:16.133Z,78.30
2019-02-17T19:33:45.021Z,80.50
2019-02-17T19:36:13.877Z,80.00
2019-02-17T19:38:42.730Z,80.10
2019-02-17T19:41:11.598Z,79.70
2019-02-17T19:43:40.452Z,79.80
2019-02-17T19:46:09.327Z,80.60
2019-02-17T19:48:38.170Z,80.40
2019-02-17T19:51:07.114Z,81.60
2019-02-17T19:53:36.055Z,83.20
2019-02-17T19:56:07.329Z,83.90
2019-02-17T19:58:35.564Z,83.10
2019-02-17T20:01:04.584Z,84.20
2019-02-17T20:03:49.986Z,85.60
2019-02-17T20:06:20.917Z,86.10
2019-02-17T20:08:49.925Z,86.50
2019-02-17T20:11:18.782Z,84.90
2019-02-17T20:13:47.682Z,85.80
2019-02-17T20:16:16.529Z,86.50
2019-02-17T20:18:45.373Z,87.40
2019-02-17T20:21:14.226Z,88.20
2019-02-17T20:23:43.142Z,87.90
2019-02-17T20:26:11.965Z,87.80
2019-02-17T20:28:43.672Z,88.00
2019-02-17T20:31:11.601Z,88.00
2019-02-17T20:33:40.442Z,88.30
2019-02-17T20:36:09.282Z,89.60
2019-02-17T20:38:38.153Z,88.00
2019-02-17T20:41:06.976Z,87.40
2019-02-17T20:43:35.845Z,86.70
2019-02-17T20:46:04.761Z,86.00
2019-02-17T20:48:33.595Z,85.50
2019-02-17T20:51:02.493Z,85.10
2019-02-17T20:53:31.341Z,85.00
2019-02-17T20:56:00.294Z,85.50
2019-02-17T20:58:29.160Z,85.70
2019-02-17T21:00:58.074Z,86.10
2019-02-17T21:03:27.010Z,89.50
2019-02-17T21:05:55.921Z,88.70
2019-02-17T21:08:24.834Z,88.50
2019-02-17T21:10:53.894Z,88.50
2019-02-17T21:13:22.738Z,90.10
2019-02-17T21:15:51.599Z,90.50
2019-02-17T21:18:20.506Z,90.20
2019-02-17T21:20:49.417Z,89.30
2019-02-17T21:23:18.258Z,89.70
2019-02-17T21:25:47.106Z,90.00
2019-02-17T21:28:16.033Z,90.50
2019-02-17T21:30:44.869Z,90.80
2019-02-17T21:33:13.701Z,90.10
2019-02-17T21:35:42.529Z,90.20
2019-02-17T21:38:11.373Z,90.10
2019-02-17T21:40:40.202Z,90.30
2019-02-17T21:43:09.046Z,90.60
2019-02-17T21:45:37.937Z,90.60
2019-02-17T21:48:06.841Z,91.00
2019-02-17T21:50:35.675Z,91.10
2019-02-17T21:53:04.663Z,91.70
2019-02-17T21:55:33.486Z,91.90
2019-02-17T21:58:02.389Z,91.60
2019-02-17T22:00:31.286Z,91.80
2019-02-17T22:03:00.190Z,91.90
2019-02-17T22:05:29.650Z,91.90
2019-02-17T22:07:59.475Z,92.30
2019-02-17T22:10:28.317Z,92.50
2019-02-17T22:12:57.239Z,92.10
2019-02-17T22:15:26.115Z,92.30
2019-02-17T22:17:55.017Z,92.30
2019-02-17T22:20:23.918Z,92.70
2019-02-17T22:22:52.778Z,93.00
2019-02-17T22:25:21.597Z,92.90
2019-02-17T22:27:50.584Z,92.80
2019-02-17T22:30:19.391Z,92.90
2019-02-17T22:32:48.329Z,93.10
2019-02-17T22:35:17.261Z,93.20
2019-02-17T22:37:46.101Z,93.40
2019-02-17T22:40:15.013Z,93.70
2019-02-17T22:42:43.991Z,93.40
2019-02-17T22:45:12.949Z,93.50
2019-02-17T22:47:41.841Z,93.90
2019-02-17T22:50:10.899Z,93.80
2019-02-17T22:52:39.812Z,94.10
2019-02-17T22:55:09.710Z,94.00
2019-02-17T22:57:38.721Z,94.10
2019-02-17T23:00:16.497Z,94.50
2019-02-17T23:02:45.472Z,94.40
2019-02-17T23:05:14.447Z,94.50
2019-02-17T23:07:43.273Z,94.40
2019-02-17T23:10:12.529Z,94.50
2019-02-17T23:12:41.357Z,94.60
2019-02-17T23:15:10.333Z,94.40
2019-02-17T23:17:39.227Z,94.30
2019-02-17T23:20:08.448Z,94.40
2019-02-17T23:22:37.429Z,94.50
2019-02-17T23:25:08.261Z,94.60
2019-02-17T23:27:37.077Z,94.80
2019-02-17T23:30:06.229Z,94.90
2019-02-17T23:32:35.150Z,94.80
2019-02-17T23:35:04.238Z,95.00
2019-02-17T23:37:33.084Z,95.40
2019-02-17T23:40:01.926Z,95.50
2019-02-17T23:42:31.240Z,95.70
2019-02-17T23:45:00.280Z,95.40
2019-02-17T23:47:29.210Z,95.70
2019-02-17T23:49:58.164Z,95.70
2019-02-17T23:52:27.013Z,96.10
2019-02-17T23:54:55.874Z,96.40
2019-02-17T23:57:24.944Z,96.30
2019-02-17T23:59:53.825Z,96.20
